Meamina — 2AMK7 — position and weather

sailwx.info

Track history (hours):
 
Tides and Currents Weather Stations Pressure Air Temp Water Temp Dewpoint Dewpoint Depression Visibility Wind Speed Wind Dir Waves Ship Positions

Meamina

Last reported at 2018-Jun-23 14:09 UTC. Time now 2018-Jun-25 05:42 UTC.
Position N 38°50' E 001°20'.

Length 60 m; draft 3.2 m.

Type: Pleasure craft. MMSI: 235061022.

Date/timePositionNaut miles runAvg speedWind from/ knotsBaromVisibWave heightAir tempDewpointWater temp
2018-Jun-23 14:09N 38°50' E 001°20'211.6
2018-Jun-23 13:58N 38°49' E 001°22'4 8.2
2018-Jun-23 13:25N 38°52' E 001°26'2 4.8
2018-Jun-23 12:56N 38°55' E 001°26'0 0.0
2018-Jun-23 12:29N 38°55' E 001°26'0 0.0
2018-Jun-23 11:59N 38°55' E 001°26'0 0.0
2018-Jun-23 11:29N 38°55' E 001°26'0 0.0
2018-Jun-23 11:00N 38°55' E 001°26'0 0.0
2018-Jun-23 10:30N 38°55' E 001°26'0 0.0
2018-Jun-23 10:00N 38°55' E 001°26'0 0.0
2018-Jun-23 09:30N 38°55' E 001°26'0 0.0
2018-Jun-23 09:00N 38°55' E 001°26'0 0.0
2018-Jun-23 08:26N 38°55' E 001°26'0 0.0
2018-Jun-23 08:00N 38°55' E 001°26'0 0.0
2018-Jun-23 07:29N 38°55' E 001°26'0 0.0
2018-Jun-23 07:00N 38°55' E 001°26'0 0.0
2018-Jun-23 06:30N 38°55' E 001°26'0 0.0
2018-Jun-23 05:59N 38°55' E 001°26'0 0.0
2018-Jun-23 05:30N 38°55' E 001°26'0 0.0
2018-Jun-23 04:56N 38°55' E 001°26'0 0.0
2018-Jun-23 04:30N 38°55' E 001°26'0 0.0
2018-Jun-23 04:00N 38°55' E 001°26'0 0.0
2018-Jun-23 03:26N 38°55' E 001°26'0 0.0
2018-Jun-23 03:00N 38°55' E 001°26'0 0.0
2018-Jun-23 02:30N 38°55' E 001°26'0 0.0
2018-Jun-23 02:00N 38°55' E 001°26'0 0.0
2018-Jun-23 01:30N 38°55' E 001°26'0 0.0
2018-Jun-23 01:00N 38°55' E 001°26'0 0.0
2018-Jun-23 00:30N 38°55' E 001°26'0 0.0
2018-Jun-23 00:00N 38°55' E 001°26'0 0.0
2018-Jun-22 23:30N 38°55' E 001°26'0 0.0
2018-Jun-22 23:00N 38°55' E 001°26'0 0.0
2018-Jun-22 22:26N 38°55' E 001°26'0 0.0
2018-Jun-22 22:00N 38°55' E 001°26'0 0.0
2018-Jun-22 21:30N 38°55' E 001°26'0 0.0
2018-Jun-22 20:50N 38°55' E 001°26'0 0.0
2018-Jun-22 20:21N 38°55' E 001°26'1 1.5
2018-Jun-22 19:25N 38°53' E 001°27'711.9
2018-Jun-22 18:52N 38°47' E 001°25'2 0.2
2018-Jun-22 09:51N 38°45' E 001°25'  
2018-Jun-18 11:05N 38°53' E 001°26'2 7.6
2018-Jun-18 10:50N 38°55' E 001°26'0 0.0
2018-Jun-18 08:10N 38°55' E 001°26'0 0.0
2018-Jun-18 03:01N 38°55' E 001°26'0 0.0
2018-Jun-17 23:13N 38°55' E 001°26'0 0.0
2018-Jun-17 22:31N 38°55' E 001°26'0 0.0
2018-Jun-17 20:55N 38°55' E 001°26'0 0.0
2018-Jun-17 18:52N 38°55' E 001°26'0 0.0
2018-Jun-17 18:27N 38°55' E 001°26'1 0.9
2018-Jun-17 17:50N 38°54' E 001°27'411.1
2018-Jun-17 17:27N 38°50' E 001°26'5 9.4
2018-Jun-17 16:55N 38°51' E 001°19'6 0.3
2018-Jun-16 16:46N 38°54' E 001°27'9 1.6
2018-Jun-16 11:16N 38°45' E 001°25'0 0.0
2018-Jun-16 08:22N 38°45' E 001°25'0 0.0
2018-Jun-16 07:45N 38°45' E 001°26'65 2.4
2018-Jun-15 04:53N 39°28' E 002°27'410.1
2018-Jun-15 04:30N 39°28' E 002°32'4 7.2
2018-Jun-15 04:01N 39°31' E 002°33'0 0.0
2018-Jun-15 03:31N 39°31' E 002°33'0 0.0
2018-Jun-15 02:57N 39°31' E 002°33'0 0.0
2018-Jun-15 02:27N 39°31' E 002°33'0 0.0
2018-Jun-15 02:01N 39°31' E 002°33'0 0.0
2018-Jun-15 01:25N 39°31' E 002°33'0 0.0
2018-Jun-15 01:00N 39°31' E 002°33'0 0.0
2018-Jun-15 00:30N 39°31' E 002°33'0 0.0
2018-Jun-15 00:01N 39°31' E 002°33'0 0.0
2018-Jun-14 23:30N 39°31' E 002°33'0 0.0
2018-Jun-14 23:01N 39°31' E 002°33'0 0.0
2018-Jun-14 22:30N 39°31' E 002°33'0 0.0
2018-Jun-14 21:55N 39°31' E 002°33'0 0.0
2018-Jun-14 21:24N 39°31' E 002°33'0 0.0
2018-Jun-14 21:00N 39°31' E 002°33'0 0.0
2018-Jun-14 20:31N 39°31' E 002°33'0 0.0
2018-Jun-14 20:01N 39°31' E 002°33'0 0.0
2018-Jun-14 19:27N 39°31' E 002°33'0 0.0
2018-Jun-14 18:49N 39°31' E 002°33'0 0.1
2018-Jun-14 18:31N 39°31' E 002°33'0 0.0
2018-Jun-14 17:55N 39°31' E 002°33'0 0.0
2018-Jun-14 17:31N 39°31' E 002°33'0 0.0
2018-Jun-14 17:01N 39°31' E 002°33'0 0.1
2018-Jun-14 16:30N 39°31' E 002°33'0 0.1
2018-Jun-14 16:01N 39°31' E 002°33'0 0.0
2018-Jun-14 15:27N 39°31' E 002°33'0 0.0
2018-Jun-14 15:00N 39°31' E 002°33'0 0.0
2018-Jun-14 14:28N 39°31' E 002°33'0 0.0
2018-Jun-14 13:58N 39°31' E 002°33'0 0.1
2018-Jun-14 13:26N 39°31' E 002°33'0 0.0
2018-Jun-14 12:58N 39°31' E 002°33'0 0.1
2018-Jun-14 12:28N 39°31' E 002°33'0 0.0
2018-Jun-14 11:58N 39°31' E 002°33'0 0.0
2018-Jun-14 11:28N 39°31' E 002°33'0 0.0
2018-Jun-14 10:46N 39°31' E 002°33'0 0.9
2018-Jun-14 10:30N 39°32' E 002°34'0 0.7
2018-Jun-14 09:59N 39°32' E 002°34'0 0.0
2018-Jun-14 09:28N 39°32' E 002°34'0 0.0
2018-Jun-14 08:52N 39°32' E 002°34'0 0.0
2018-Jun-14 08:28N 39°32' E 002°34'0 0.0
2018-Jun-14 07:58N 39°32' E 002°34'0 0.0
2018-Jun-14 07:25N 39°32' E 002°34'0 0.0
2018-Jun-14 06:59N 39°32' E 002°34'0 0.0
2018-Jun-14 06:25N 39°32' E 002°34'0 0.0
2018-Jun-14 05:37N 39°32' E 002°34'0 0.0
2018-Jun-14 05:19N 39°32' E 002°34'0 0.0
2018-Jun-14 04:55N 39°32' E 002°34'0 0.0
2018-Jun-14 04:29N 39°32' E 002°34'0 0.0
2018-Jun-14 03:55N 39°32' E 002°34'0 0.0
2018-Jun-14 03:29N 39°32' E 002°34'0 0.0
2018-Jun-14 02:58N 39°32' E 002°34'0 0.0
2018-Jun-14 02:28N 39°32' E 002°34'0 0.0
2018-Jun-14 01:58N 39°32' E 002°34'0 0.0
2018-Jun-14 01:25N 39°32' E 002°34'0 0.0
2018-Jun-14 00:58N 39°32' E 002°34'0 0.0
2018-Jun-14 00:28N 39°32' E 002°34'0 0.0
2018-Jun-13 23:59N 39°32' E 002°34'0 0.0
2018-Jun-13 23:28N 39°32' E 002°34'0 0.0
2018-Jun-13 22:55N 39°32' E 002°34'0 0.0
2018-Jun-13 22:28N 39°32' E 002°34'0 0.0
2018-Jun-13 21:59N 39°32' E 002°34'0 0.0
2018-Jun-13 21:25N 39°32' E 002°34'0 0.0
2018-Jun-13 20:55N 39°32' E 002°34'0 0.0
2018-Jun-13 20:28N 39°32' E 002°34'0 0.0
2018-Jun-13 19:58N 39°32' E 002°34'0 0.0
2018-Jun-13 19:28N 39°32' E 002°34'0 0.0
2018-Jun-13 18:59N 39°32' E 002°34'0 0.0
2018-Jun-13 18:28N 39°32' E 002°34'0 0.0
2018-Jun-13 17:58N 39°32' E 002°34'0 0.0
2018-Jun-13 17:28N 39°32' E 002°34'0 0.0
2018-Jun-13 16:58N 39°32' E 002°34'0 0.0
2018-Jun-13 16:29N 39°32' E 002°34'0 0.0
2018-Jun-13 15:52N 39°32' E 002°34'0 0.0
2018-Jun-13 15:29N 39°32' E 002°34'0 0.0
2018-Jun-13 15:00N 39°32' E 002°34'0 0.0
2018-Jun-13 14:29N 39°32' E 002°34'  
Track history (hours):
 
Tides and Currents Weather Stations Pressure Air Temp Water Temp Dewpoint Dewpoint Depression Visibility Wind Speed Wind Dir Waves Ship Positions

Meamina

Last reported at 2018-Jun-23 14:09 UTC. Time now 2018-Jun-25 05:42 UTC.
Position N 38°50' E 001°20'.

Length 60 m; draft 3.2 m.

Type: Pleasure craft. MMSI: 235061022.

Date/timePositionNaut miles runAvg speedWind from/ knotsBaromVisibWave heightAir tempDewpointWater temp
2018-Jun-23 14:09N 38°50' E 001°20'211.6
2018-Jun-23 13:58N 38°49' E 001°22'4 8.2
2018-Jun-23 13:25N 38°52' E 001°26'2 4.8
2018-Jun-23 12:56N 38°55' E 001°26'0 0.0
2018-Jun-23 12:29N 38°55' E 001°26'0 0.0
2018-Jun-23 11:59N 38°55' E 001°26'0 0.0
2018-Jun-23 11:29N 38°55' E 001°26'0 0.0
2018-Jun-23 11:00N 38°55' E 001°26'0 0.0
2018-Jun-23 10:30N 38°55' E 001°26'0 0.0
2018-Jun-23 10:00N 38°55' E 001°26'0 0.0
2018-Jun-23 09:30N 38°55' E 001°26'0 0.0
2018-Jun-23 09:00N 38°55' E 001°26'0 0.0
2018-Jun-23 08:26N 38°55' E 001°26'0 0.0
2018-Jun-23 08:00N 38°55' E 001°26'0 0.0
2018-Jun-23 07:29N 38°55' E 001°26'0 0.0
2018-Jun-23 07:00N 38°55' E 001°26'0 0.0
2018-Jun-23 06:30N 38°55' E 001°26'0 0.0
2018-Jun-23 05:59N 38°55' E 001°26'0 0.0
2018-Jun-23 05:30N 38°55' E 001°26'0 0.0
2018-Jun-23 04:56N 38°55' E 001°26'0 0.0
2018-Jun-23 04:30N 38°55' E 001°26'0 0.0
2018-Jun-23 04:00N 38°55' E 001°26'0 0.0
2018-Jun-23 03:26N 38°55' E 001°26'0 0.0
2018-Jun-23 03:00N 38°55' E 001°26'0 0.0
2018-Jun-23 02:30N 38°55' E 001°26'0 0.0
2018-Jun-23 02:00N 38°55' E 001°26'0 0.0
2018-Jun-23 01:30N 38°55' E 001°26'0 0.0
2018-Jun-23 01:00N 38°55' E 001°26'0 0.0
2018-Jun-23 00:30N 38°55' E 001°26'0 0.0
2018-Jun-23 00:00N 38°55' E 001°26'0 0.0
2018-Jun-22 23:30N 38°55' E 001°26'0 0.0
2018-Jun-22 23:00N 38°55' E 001°26'0 0.0
2018-Jun-22 22:26N 38°55' E 001°26'0 0.0
2018-Jun-22 22:00N 38°55' E 001°26'0 0.0
2018-Jun-22 21:30N 38°55' E 001°26'0 0.0
2018-Jun-22 20:50N 38°55' E 001°26'0 0.0
2018-Jun-22 20:21N 38°55' E 001°26'1 1.5
2018-Jun-22 19:25N 38°53' E 001°27'711.9
2018-Jun-22 18:52N 38°47' E 001°25'2 0.2
2018-Jun-22 09:51N 38°45' E 001°25'  
2018-Jun-18 11:05N 38°53' E 001°26'2 7.6
2018-Jun-18 10:50N 38°55' E 001°26'0 0.0
2018-Jun-18 08:10N 38°55' E 001°26'0 0.0
2018-Jun-18 03:01N 38°55' E 001°26'0 0.0
2018-Jun-17 23:13N 38°55' E 001°26'0 0.0
2018-Jun-17 22:31N 38°55' E 001°26'0 0.0
2018-Jun-17 20:55N 38°55' E 001°26'0 0.0
2018-Jun-17 18:52N 38°55' E 001°26'0 0.0
2018-Jun-17 18:27N 38°55' E 001°26'1 0.9
2018-Jun-17 17:50N 38°54' E 001°27'411.1
2018-Jun-17 17:27N 38°50' E 001°26'5 9.4
2018-Jun-17 16:55N 38°51' E 001°19'6 0.3
2018-Jun-16 16:46N 38°54' E 001°27'9 1.6
2018-Jun-16 11:16N 38°45' E 001°25'0 0.0
2018-Jun-16 08:22N 38°45' E 001°25'0 0.0
2018-Jun-16 07:45N 38°45' E 001°26'65 2.4
2018-Jun-15 04:53N 39°28' E 002°27'410.1
2018-Jun-15 04:30N 39°28' E 002°32'4 7.2
2018-Jun-15 04:01N 39°31' E 002°33'0 0.0
2018-Jun-15 03:31N 39°31' E 002°33'0 0.0
2018-Jun-15 02:57N 39°31' E 002°33'0 0.0
2018-Jun-15 02:27N 39°31' E 002°33'0 0.0
2018-Jun-15 02:01N 39°31' E 002°33'0 0.0
2018-Jun-15 01:25N 39°31' E 002°33'0 0.0
2018-Jun-15 01:00N 39°31' E 002°33'0 0.0
2018-Jun-15 00:30N 39°31' E 002°33'0 0.0
2018-Jun-15 00:01N 39°31' E 002°33'0 0.0
2018-Jun-14 23:30N 39°31' E 002°33'0 0.0
2018-Jun-14 23:01N 39°31' E 002°33'0 0.0
2018-Jun-14 22:30N 39°31' E 002°33'0 0.0
2018-Jun-14 21:55N 39°31' E 002°33'0 0.0
2018-Jun-14 21:24N 39°31' E 002°33'0 0.0
2018-Jun-14 21:00N 39°31' E 002°33'0 0.0
2018-Jun-14 20:31N 39°31' E 002°33'0 0.0
2018-Jun-14 20:01N 39°31' E 002°33'0 0.0
2018-Jun-14 19:27N 39°31' E 002°33'0 0.0
2018-Jun-14 18:49N 39°31' E 002°33'0 0.1
2018-Jun-14 18:31N 39°31' E 002°33'0 0.0
2018-Jun-14 17:55N 39°31' E 002°33'0 0.0
2018-Jun-14 17:31N 39°31' E 002°33'0 0.0
2018-Jun-14 17:01N 39°31' E 002°33'0 0.1
2018-Jun-14 16:30N 39°31' E 002°33'0 0.1
2018-Jun-14 16:01N 39°31' E 002°33'0 0.0
2018-Jun-14 15:27N 39°31' E 002°33'0 0.0
2018-Jun-14 15:00N 39°31' E 002°33'0 0.0
2018-Jun-14 14:28N 39°31' E 002°33'0 0.0
2018-Jun-14 13:58N 39°31' E 002°33'0 0.1
2018-Jun-14 13:26N 39°31' E 002°33'0 0.0
2018-Jun-14 12:58N 39°31' E 002°33'0 0.1
2018-Jun-14 12:28N 39°31' E 002°33'0 0.0
2018-Jun-14 11:58N 39°31' E 002°33'0 0.0
2018-Jun-14 11:28N 39°31' E 002°33'0 0.0
2018-Jun-14 10:46N 39°31' E 002°33'0 0.9
2018-Jun-14 10:30N 39°32' E 002°34'0 0.7
2018-Jun-14 09:59N 39°32' E 002°34'0 0.0
2018-Jun-14 09:28N 39°32' E 002°34'0 0.0
2018-Jun-14 08:52N 39°32' E 002°34'0 0.0
2018-Jun-14 08:28N 39°32' E 002°34'0 0.0
2018-Jun-14 07:58N 39°32' E 002°34'0 0.0
2018-Jun-14 07:25N 39°32' E 002°34'0 0.0
2018-Jun-14 06:59N 39°32' E 002°34'0 0.0
2018-Jun-14 06:25N 39°32' E 002°34'0 0.0
2018-Jun-14 05:37N 39°32' E 002°34'0 0.0
2018-Jun-14 05:19N 39°32' E 002°34'0 0.0
2018-Jun-14 04:55N 39°32' E 002°34'0 0.0
2018-Jun-14 04:29N 39°32' E 002°34'0 0.0
2018-Jun-14 03:55N 39°32' E 002°34'0 0.0
2018-Jun-14 03:29N 39°32' E 002°34'0 0.0
2018-Jun-14 02:58N 39°32' E 002°34'0 0.0
2018-Jun-14 02:28N 39°32' E 002°34'0 0.0
2018-Jun-14 01:58N 39°32' E 002°34'0 0.0
2018-Jun-14 01:25N 39°32' E 002°34'0 0.0
2018-Jun-14 00:58N 39°32' E 002°34'0 0.0
2018-Jun-14 00:28N 39°32' E 002°34'0 0.0
2018-Jun-13 23:59N 39°32' E 002°34'0 0.0
2018-Jun-13 23:28N 39°32' E 002°34'0 0.0
2018-Jun-13 22:55N 39°32' E 002°34'0 0.0
2018-Jun-13 22:28N 39°32' E 002°34'0 0.0
2018-Jun-13 21:59N 39°32' E 002°34'0 0.0
2018-Jun-13 21:25N 39°32' E 002°34'0 0.0
2018-Jun-13 20:55N 39°32' E 002°34'0 0.0
2018-Jun-13 20:28N 39°32' E 002°34'0 0.0
2018-Jun-13 19:58N 39°32' E 002°34'0 0.0
2018-Jun-13 19:28N 39°32' E 002°34'0 0.0
2018-Jun-13 18:59N 39°32' E 002°34'0 0.0
2018-Jun-13 18:28N 39°32' E 002°34'0 0.0
2018-Jun-13 17:58N 39°32' E 002°34'0 0.0
2018-Jun-13 17:28N 39°32' E 002°34'0 0.0
2018-Jun-13 16:58N 39°32' E 002°34'0 0.0
2018-Jun-13 16:29N 39°32' E 002°34'0 0.0
2018-Jun-13 15:52N 39°32' E 002°34'0 0.0
2018-Jun-13 15:29N 39°32' E 002°34'0 0.0
2018-Jun-13 15:00N 39°32' E 002°34'0 0.0
2018-Jun-13 14:29N 39°32' E 002°34'  

Dump ship's entire track history